Ever Leading — 2FRK8 — position and weather

sailwx.info

Track history (hours):
 
Tides and Currents Weather Stations Pressure Air Temp Water Temp Dewpoint Dewpoint Depression Visibility Wind Speed Wind Dir Waves Ship Positions

Ever Leading

Last reported at 2018-Jul-17 00:00 UTC. Time now 2018-Jul-17 15:03 UTC.
Position N 36°48' W 073°00'.

Length 335 m; draft 9.8 m.

Type: Cargo ship. MMSI: 235093619.

Wind from 200 at 14 knots

Barometer 1016.0 mb
Air temperature 30.0 ° C
Visibility: greater than 10.8 NM
Dewpoint 25.8 ° C
Water temperature 26.0 ° C

Date/timePositionNaut miles runAvg speedWind from/ knotsBaromVisibWave heightAir tempDewpointWater temp
2018-Jul-17 00:00N 36°48' W 073°00'41318.5 200 / 141016.010.8 30.025.826.0
2018-Jul-16 01:37N 32°40' W 079°42'315.8
2018-Jul-16 01:24N 32°42' W 079°45'614.7
2018-Jul-16 01:00N 32°45' W 079°51'5 9.7
2018-Jul-16 00:30N 32°48' W 079°55'2 3.7
2018-Jul-16 00:00N 32°50' W 079°54'0 0.2
2018-Jul-15 23:30N 32°50' W 079°53'0 0.0
2018-Jul-15 23:00N 32°50' W 079°54'0 0.0
2018-Jul-15 22:27N 32°50' W 079°53'0 0.0
2018-Jul-15 21:57N 32°50' W 079°53'0 0.0
2018-Jul-15 21:31N 32°50' W 079°53'0 0.0
2018-Jul-15 20:39N 32°50' W 079°54'0 0.0
2018-Jul-15 20:12N 32°50' W 079°54'0 0.0
2018-Jul-15 20:00N 32°50' W 079°53'0 0.0
2018-Jul-15 19:27N 32°50' W 079°53'0 0.0
2018-Jul-15 18:30N 32°50' W 079°53'0 0.0
2018-Jul-15 17:48N 32°50' W 079°54'0 0.0
2018-Jul-15 17:30N 32°50' W 079°53'0 0.0
2018-Jul-15 16:58N 32°50' W 079°54'0 0.0
2018-Jul-15 16:27N 32°50' W 079°53'0 0.0
2018-Jul-15 16:01N 32°50' W 079°54'0 0.0
2018-Jul-15 15:30N 32°50' W 079°53'0 0.0
2018-Jul-15 14:54N 32°50' W 079°53'0 0.0
2018-Jul-15 14:25N 32°50' W 079°53'0 0.0
2018-Jul-15 14:00N 32°50' W 079°53'0 0.0
2018-Jul-15 13:30N 32°50' W 079°53'0 0.0
2018-Jul-15 12:58N 32°50' W 079°54'0 0.0
2018-Jul-15 12:30N 32°50' W 079°54'0 0.0
2018-Jul-15 12:01N 32°50' W 079°54'0 0.0
2018-Jul-15 11:30N 32°50' W 079°54'0 0.0
2018-Jul-15 11:01N 32°50' W 079°53'0 0.0
2018-Jul-15 06:01N 32°50' W 079°54'0 0.0
2018-Jul-15 05:12N 32°50' W 079°54'7 1.8
2018-Jul-15 01:10N 32°44' W 079°49'315.5
2018-Jul-15 01:00N 32°42' W 079°46'56 6.4
2018-Jul-14 16:14N 31°56' W 080°24'415.3
2018-Jul-14 15:59N 31°56' W 080°28'715.4
2018-Jul-14 15:30N 31°56' W 080°37'713.1
2018-Jul-14 15:00N 31°58' W 080°44'713.1
2018-Jul-14 14:30N 32°02' W 080°50'9 8.7
2018-Jul-14 13:30N 32°06' W 080°60'2 3.6
2018-Jul-14 13:00N 32°05' W 081°02'3 5.4
2018-Jul-14 12:29N 32°05' W 081°05'2 3.8
2018-Jul-14 12:00N 32°06' W 081°07'2 3.7
2018-Jul-14 11:30N 32°07' W 081°08'1 2.0
2018-Jul-14 11:00N 32°08' W 081°09'0 0.0
2018-Jul-14 10:29N 32°08' W 081°09'0 0.0
2018-Jul-14 09:59N 32°08' W 081°09'0 0.0
2018-Jul-14 09:23N 32°08' W 081°09'0 0.0
2018-Jul-14 08:59N 32°08' W 081°09'0 0.0
2018-Jul-14 08:29N 32°08' W 081°09'0 0.0
2018-Jul-14 07:59N 32°08' W 081°09'0 0.0
2018-Jul-14 07:29N 32°08' W 081°09'0 0.0
2018-Jul-14 06:59N 32°08' W 081°09'0 0.0
2018-Jul-14 06:29N 32°08' W 081°09'0 0.0
2018-Jul-14 05:29N 32°08' W 081°09'0 0.0
2018-Jul-14 04:53N 32°08' W 081°09'0 0.0
2018-Jul-14 04:29N 32°08' W 081°09'0 0.0
2018-Jul-14 04:00N 32°08' W 081°09'0 0.0
2018-Jul-14 03:30N 32°08' W 081°09'0 0.0
2018-Jul-14 03:00N 32°08' W 081°09'0 0.0
2018-Jul-14 02:30N 32°08' W 081°09'0 0.0
2018-Jul-14 02:00N 32°08' W 081°09'0 0.0
2018-Jul-14 01:30N 32°08' W 081°09'0 0.0
2018-Jul-14 00:54N 32°08' W 081°09'0 0.0
2018-Jul-14 00:30N 32°08' W 081°09'0 0.0
2018-Jul-14 00:00N 32°08' W 081°09'0 0.0
2018-Jul-13 23:30N 32°08' W 081°09'0 0.0
2018-Jul-13 23:00N 32°08' W 081°09'0 0.0
2018-Jul-13 22:30N 32°08' W 081°09'0 0.0
2018-Jul-13 22:00N 32°08' W 081°09'0 0.0
2018-Jul-13 21:30N 32°08' W 081°09'0 0.0
2018-Jul-13 21:00N 32°08' W 081°09'0 0.0
2018-Jul-13 20:30N 32°08' W 081°09'0 0.0
2018-Jul-13 19:54N 32°08' W 081°09'0 0.0
2018-Jul-13 19:30N 32°08' W 081°09'0 0.0
2018-Jul-13 19:00N 32°08' W 081°09'0 0.0
2018-Jul-13 18:30N 32°08' W 081°09'0 0.0
2018-Jul-13 17:54N 32°08' W 081°09'0 0.0
2018-Jul-13 17:24N 32°08' W 081°09'0 0.0
2018-Jul-13 17:00N 32°08' W 081°09'0 0.0
2018-Jul-13 16:18N 32°08' W 081°09'0 0.0
2018-Jul-13 16:00N 32°08' W 081°09'0 0.0
2018-Jul-13 15:30N 32°08' W 081°09'1 1.5
2018-Jul-13 15:00N 32°08' W 081°08'2 3.7
2018-Jul-13 14:30N 32°06' W 081°07'5 4.7
2018-Jul-13 13:30N 32°05' W 081°01'4 8.3
2018-Jul-13 13:00N 32°04' W 080°57'611.0
2018-Jul-13 12:30N 32°02' W 080°51'713.7
2018-Jul-13 12:00N 31°58' W 080°44'611.9
2018-Jul-13 11:30N 31°56' W 080°37'510.4
2018-Jul-13 11:00N 31°55' W 080°32'0 0.6
2018-Jul-13 10:30N 31°54' W 080°32'0 0.5
2018-Jul-13 10:00N 31°54' W 080°32'0 0.4
2018-Jul-13 09:28N 31°54' W 080°32'0 0.5
2018-Jul-13 09:00N 31°54' W 080°32'2 3.1
2018-Jul-13 08:30N 31°53' W 080°30'5 9.5
2018-Jul-13 08:00N 31°50' W 080°26'5 9.3
2018-Jul-13 07:30N 31°48' W 080°21'5 9.1
2018-Jul-13 07:00N 31°46' W 080°16'611.1
2018-Jul-13 06:27N 31°43' W 080°10'511.1
2018-Jul-13 06:00N 31°40' W 080°05'611.5
2018-Jul-13 05:30N 31°37' W 079°59'814.8
2018-Jul-13 04:59N 31°33' W 079°52'714.0
2018-Jul-13 04:28N 31°29' W 079°44'613.2
2018-Jul-13 04:00N 31°26' W 079°38'5814.4
2018-Jul-13 00:00N 30°54' W 078°42'2814.2 180 / 81017.010.8 29.027.629.0
2018-Jul-12 22:00N 30°42' W 078°12'14914.9 180 / 21017.010.8 32.020.129.0
2018-Jul-12 12:00N 28°42' W 076°30'36315.8 180 / 11016.010.8 28.023.729.0
2018-Jul-11 13:00N 22°54' W 074°36'22314.8 180 / 81014.010.8 27.024.128.0
2018-Jul-10 22:00N 19°12' W 074°18'18318.3 270 / 41013.010.8 33.026.129.0
2018-Jul-10 12:00N 16°30' W 075°48'46719.3 090 / 171012.010.8 28.025.228.0
2018-Jul-09 11:45N 09°44' W 079°43'620.5
2018-Jul-09 11:29N 09°38' W 079°46'1020.1
2018-Jul-09 11:00N 09°30' W 079°51'714.9
2018-Jul-09 10:30N 09°23' W 079°54'1 1.7
2018-Jul-09 10:00N 09°22' W 079°54'0 0.2
2018-Jul-09 09:29N 09°23' W 079°53'0 0.0
2018-Jul-09 08:58N 09°23' W 079°53'0 0.0
2018-Jul-09 08:28N 09°23' W 079°53'0 0.0
2018-Jul-09 07:58N 09°23' W 079°53'0 0.0
2018-Jul-09 07:28N 09°23' W 079°53'0 0.0
2018-Jul-09 06:58N 09°23' W 079°53'0 0.0
2018-Jul-09 06:28N 09°23' W 079°53'0 0.0
2018-Jul-09 05:58N 09°23' W 079°53'0 0.0
2018-Jul-09 05:28N 09°23' W 079°53'0 0.0
2018-Jul-09 04:58N 09°23' W 079°53'0 0.0
2018-Jul-09 04:28N 09°23' W 079°53'0 0.0
2018-Jul-09 03:58N 09°23' W 079°53'0 0.0
2018-Jul-09 03:28N 09°23' W 079°53'0 0.0
2018-Jul-09 02:58N 09°23' W 079°53'0 0.0
2018-Jul-09 02:28N 09°23' W 079°53'0 0.0
2018-Jul-09 01:58N 09°23' W 079°53'0 0.0
2018-Jul-09 01:28N 09°23' W 079°53'0 0.0
2018-Jul-09 00:59N 09°23' W 079°53'0 0.0
2018-Jul-09 00:28N 09°23' W 079°53'0 0.0
2018-Jul-08 23:58N 09°23' W 079°53'0 0.0
2018-Jul-08 23:28N 09°23' W 079°53'0 0.0
2018-Jul-08 23:00N 09°23' W 079°53'0 0.4
2018-Jul-08 22:30N 09°22' W 079°54'3 6.5
2018-Jul-08 22:00N 09°26' W 079°54'5 9.6
2018-Jul-08 21:30N 09°21' W 079°55'3 6.7
2018-Jul-08 21:00N 09°17' W 079°55'1 1.8
2018-Jul-08 20:30N 09°16' W 079°55'0 0.5
2018-Jul-08 20:00N 09°16' W 079°55'0 0.1
2018-Jul-08 19:26N 09°16' W 079°55'0 0.5
2018-Jul-08 19:00N 09°16' W 079°55'0 0.5
2018-Jul-08 18:30N 09°16' W 079°55'0 0.5
2018-Jul-08 18:00N 09°15' W 079°55'2 3.5
2018-Jul-08 17:30N 09°14' W 079°55'4 7.4
2018-Jul-08 17:00N 09°11' W 079°53'161 5.4
2018-Jul-07 11:00N 06°54' W 081°18'20718.8 250 / 61008.010.8 27.024.127.0
2018-Jul-07 00:00N 08°00' W 084°36'   180 / 71009.0 5.4 28.023.729.0
Track history (hours):
 
Tides and Currents Weather Stations Pressure Air Temp Water Temp Dewpoint Dewpoint Depression Visibility Wind Speed Wind Dir Waves Ship Positions

Ever Leading

Last reported at 2018-Jul-17 00:00 UTC. Time now 2018-Jul-17 15:03 UTC.
Position N 36°48' W 073°00'.

Length 335 m; draft 9.8 m.

Type: Cargo ship. MMSI: 235093619.

Wind from 200 at 14 knots

Barometer 1016.0 mb
Air temperature 30.0 ° C
Visibility: greater than 10.8 NM
Dewpoint 25.8 ° C
Water temperature 26.0 ° C

Date/timePositionNaut miles runAvg speedWind from/ knotsBaromVisibWave heightAir tempDewpointWater temp
2018-Jul-17 00:00N 36°48' W 073°00'41318.5 200 / 141016.010.8 30.025.826.0
2018-Jul-16 01:37N 32°40' W 079°42'315.8
2018-Jul-16 01:24N 32°42' W 079°45'614.7
2018-Jul-16 01:00N 32°45' W 079°51'5 9.7
2018-Jul-16 00:30N 32°48' W 079°55'2 3.7
2018-Jul-16 00:00N 32°50' W 079°54'0 0.2
2018-Jul-15 23:30N 32°50' W 079°53'0 0.0
2018-Jul-15 23:00N 32°50' W 079°54'0 0.0
2018-Jul-15 22:27N 32°50' W 079°53'0 0.0
2018-Jul-15 21:57N 32°50' W 079°53'0 0.0
2018-Jul-15 21:31N 32°50' W 079°53'0 0.0
2018-Jul-15 20:39N 32°50' W 079°54'0 0.0
2018-Jul-15 20:12N 32°50' W 079°54'0 0.0
2018-Jul-15 20:00N 32°50' W 079°53'0 0.0
2018-Jul-15 19:27N 32°50' W 079°53'0 0.0
2018-Jul-15 18:30N 32°50' W 079°53'0 0.0
2018-Jul-15 17:48N 32°50' W 079°54'0 0.0
2018-Jul-15 17:30N 32°50' W 079°53'0 0.0
2018-Jul-15 16:58N 32°50' W 079°54'0 0.0
2018-Jul-15 16:27N 32°50' W 079°53'0 0.0
2018-Jul-15 16:01N 32°50' W 079°54'0 0.0
2018-Jul-15 15:30N 32°50' W 079°53'0 0.0
2018-Jul-15 14:54N 32°50' W 079°53'0 0.0
2018-Jul-15 14:25N 32°50' W 079°53'0 0.0
2018-Jul-15 14:00N 32°50' W 079°53'0 0.0
2018-Jul-15 13:30N 32°50' W 079°53'0 0.0
2018-Jul-15 12:58N 32°50' W 079°54'0 0.0
2018-Jul-15 12:30N 32°50' W 079°54'0 0.0
2018-Jul-15 12:01N 32°50' W 079°54'0 0.0
2018-Jul-15 11:30N 32°50' W 079°54'0 0.0
2018-Jul-15 11:01N 32°50' W 079°53'0 0.0
2018-Jul-15 06:01N 32°50' W 079°54'0 0.0
2018-Jul-15 05:12N 32°50' W 079°54'7 1.8
2018-Jul-15 01:10N 32°44' W 079°49'315.5
2018-Jul-15 01:00N 32°42' W 079°46'56 6.4
2018-Jul-14 16:14N 31°56' W 080°24'415.3
2018-Jul-14 15:59N 31°56' W 080°28'715.4
2018-Jul-14 15:30N 31°56' W 080°37'713.1
2018-Jul-14 15:00N 31°58' W 080°44'713.1
2018-Jul-14 14:30N 32°02' W 080°50'9 8.7
2018-Jul-14 13:30N 32°06' W 080°60'2 3.6
2018-Jul-14 13:00N 32°05' W 081°02'3 5.4
2018-Jul-14 12:29N 32°05' W 081°05'2 3.8
2018-Jul-14 12:00N 32°06' W 081°07'2 3.7
2018-Jul-14 11:30N 32°07' W 081°08'1 2.0
2018-Jul-14 11:00N 32°08' W 081°09'0 0.0
2018-Jul-14 10:29N 32°08' W 081°09'0 0.0
2018-Jul-14 09:59N 32°08' W 081°09'0 0.0
2018-Jul-14 09:23N 32°08' W 081°09'0 0.0
2018-Jul-14 08:59N 32°08' W 081°09'0 0.0
2018-Jul-14 08:29N 32°08' W 081°09'0 0.0
2018-Jul-14 07:59N 32°08' W 081°09'0 0.0
2018-Jul-14 07:29N 32°08' W 081°09'0 0.0
2018-Jul-14 06:59N 32°08' W 081°09'0 0.0
2018-Jul-14 06:29N 32°08' W 081°09'0 0.0
2018-Jul-14 05:29N 32°08' W 081°09'0 0.0
2018-Jul-14 04:53N 32°08' W 081°09'0 0.0
2018-Jul-14 04:29N 32°08' W 081°09'0 0.0
2018-Jul-14 04:00N 32°08' W 081°09'0 0.0
2018-Jul-14 03:30N 32°08' W 081°09'0 0.0
2018-Jul-14 03:00N 32°08' W 081°09'0 0.0
2018-Jul-14 02:30N 32°08' W 081°09'0 0.0
2018-Jul-14 02:00N 32°08' W 081°09'0 0.0
2018-Jul-14 01:30N 32°08' W 081°09'0 0.0
2018-Jul-14 00:54N 32°08' W 081°09'0 0.0
2018-Jul-14 00:30N 32°08' W 081°09'0 0.0
2018-Jul-14 00:00N 32°08' W 081°09'0 0.0
2018-Jul-13 23:30N 32°08' W 081°09'0 0.0
2018-Jul-13 23:00N 32°08' W 081°09'0 0.0
2018-Jul-13 22:30N 32°08' W 081°09'0 0.0
2018-Jul-13 22:00N 32°08' W 081°09'0 0.0
2018-Jul-13 21:30N 32°08' W 081°09'0 0.0
2018-Jul-13 21:00N 32°08' W 081°09'0 0.0
2018-Jul-13 20:30N 32°08' W 081°09'0 0.0
2018-Jul-13 19:54N 32°08' W 081°09'0 0.0
2018-Jul-13 19:30N 32°08' W 081°09'0 0.0
2018-Jul-13 19:00N 32°08' W 081°09'0 0.0
2018-Jul-13 18:30N 32°08' W 081°09'0 0.0
2018-Jul-13 17:54N 32°08' W 081°09'0 0.0
2018-Jul-13 17:24N 32°08' W 081°09'0 0.0
2018-Jul-13 17:00N 32°08' W 081°09'0 0.0
2018-Jul-13 16:18N 32°08' W 081°09'0 0.0
2018-Jul-13 16:00N 32°08' W 081°09'0 0.0
2018-Jul-13 15:30N 32°08' W 081°09'1 1.5
2018-Jul-13 15:00N 32°08' W 081°08'2 3.7
2018-Jul-13 14:30N 32°06' W 081°07'5 4.7
2018-Jul-13 13:30N 32°05' W 081°01'4 8.3
2018-Jul-13 13:00N 32°04' W 080°57'611.0
2018-Jul-13 12:30N 32°02' W 080°51'713.7
2018-Jul-13 12:00N 31°58' W 080°44'611.9
2018-Jul-13 11:30N 31°56' W 080°37'510.4
2018-Jul-13 11:00N 31°55' W 080°32'0 0.6
2018-Jul-13 10:30N 31°54' W 080°32'0 0.5
2018-Jul-13 10:00N 31°54' W 080°32'0 0.4
2018-Jul-13 09:28N 31°54' W 080°32'0 0.5
2018-Jul-13 09:00N 31°54' W 080°32'2 3.1
2018-Jul-13 08:30N 31°53' W 080°30'5 9.5
2018-Jul-13 08:00N 31°50' W 080°26'5 9.3
2018-Jul-13 07:30N 31°48' W 080°21'5 9.1
2018-Jul-13 07:00N 31°46' W 080°16'611.1
2018-Jul-13 06:27N 31°43' W 080°10'511.1
2018-Jul-13 06:00N 31°40' W 080°05'611.5
2018-Jul-13 05:30N 31°37' W 079°59'814.8
2018-Jul-13 04:59N 31°33' W 079°52'714.0
2018-Jul-13 04:28N 31°29' W 079°44'613.2
2018-Jul-13 04:00N 31°26' W 079°38'5814.4
2018-Jul-13 00:00N 30°54' W 078°42'2814.2 180 / 81017.010.8 29.027.629.0
2018-Jul-12 22:00N 30°42' W 078°12'14914.9 180 / 21017.010.8 32.020.129.0
2018-Jul-12 12:00N 28°42' W 076°30'36315.8 180 / 11016.010.8 28.023.729.0
2018-Jul-11 13:00N 22°54' W 074°36'22314.8 180 / 81014.010.8 27.024.128.0
2018-Jul-10 22:00N 19°12' W 074°18'18318.3 270 / 41013.010.8 33.026.129.0
2018-Jul-10 12:00N 16°30' W 075°48'46719.3 090 / 171012.010.8 28.025.228.0
2018-Jul-09 11:45N 09°44' W 079°43'620.5
2018-Jul-09 11:29N 09°38' W 079°46'1020.1
2018-Jul-09 11:00N 09°30' W 079°51'714.9
2018-Jul-09 10:30N 09°23' W 079°54'1 1.7
2018-Jul-09 10:00N 09°22' W 079°54'0 0.2
2018-Jul-09 09:29N 09°23' W 079°53'0 0.0
2018-Jul-09 08:58N 09°23' W 079°53'0 0.0
2018-Jul-09 08:28N 09°23' W 079°53'0 0.0
2018-Jul-09 07:58N 09°23' W 079°53'0 0.0
2018-Jul-09 07:28N 09°23' W 079°53'0 0.0
2018-Jul-09 06:58N 09°23' W 079°53'0 0.0
2018-Jul-09 06:28N 09°23' W 079°53'0 0.0
2018-Jul-09 05:58N 09°23' W 079°53'0 0.0
2018-Jul-09 05:28N 09°23' W 079°53'0 0.0
2018-Jul-09 04:58N 09°23' W 079°53'0 0.0
2018-Jul-09 04:28N 09°23' W 079°53'0 0.0
2018-Jul-09 03:58N 09°23' W 079°53'0 0.0
2018-Jul-09 03:28N 09°23' W 079°53'0 0.0
2018-Jul-09 02:58N 09°23' W 079°53'0 0.0
2018-Jul-09 02:28N 09°23' W 079°53'0 0.0
2018-Jul-09 01:58N 09°23' W 079°53'0 0.0
2018-Jul-09 01:28N 09°23' W 079°53'0 0.0
2018-Jul-09 00:59N 09°23' W 079°53'0 0.0
2018-Jul-09 00:28N 09°23' W 079°53'0 0.0
2018-Jul-08 23:58N 09°23' W 079°53'0 0.0
2018-Jul-08 23:28N 09°23' W 079°53'0 0.0
2018-Jul-08 23:00N 09°23' W 079°53'0 0.4
2018-Jul-08 22:30N 09°22' W 079°54'3 6.5
2018-Jul-08 22:00N 09°26' W 079°54'5 9.6
2018-Jul-08 21:30N 09°21' W 079°55'3 6.7
2018-Jul-08 21:00N 09°17' W 079°55'1 1.8
2018-Jul-08 20:30N 09°16' W 079°55'0 0.5
2018-Jul-08 20:00N 09°16' W 079°55'0 0.1
2018-Jul-08 19:26N 09°16' W 079°55'0 0.5
2018-Jul-08 19:00N 09°16' W 079°55'0 0.5
2018-Jul-08 18:30N 09°16' W 079°55'0 0.5
2018-Jul-08 18:00N 09°15' W 079°55'2 3.5
2018-Jul-08 17:30N 09°14' W 079°55'4 7.4
2018-Jul-08 17:00N 09°11' W 079°53'161 5.4
2018-Jul-07 11:00N 06°54' W 081°18'20718.8 250 / 61008.010.8 27.024.127.0
2018-Jul-07 00:00N 08°00' W 084°36'   180 / 71009.0 5.4 28.023.729.0

Dump ship's entire track history